Impacts METAR Board
IDs:

KMEM - Memphis Intl, TN, US

Updated at: 0600 UTC 14 Dec 2018
Potential Impact None Slight Moderate High
Time 13/18Z 13/19Z 13/20Z 13/21Z 13/22Z 13/23Z 14/00Z 14/01Z 14/02Z 14/03Z 14/04Z 14/05Z 14/06Z
Temp56 59 59 60 60 57 56 54 53 53 52 53 53
Dewpt50 51 51 51 52 53 52 52 52 52 51 51 51
Altim29.94 29.91 29.90 29.90 29.91 29.90 29.90 29.87 29.88 29.87 29.87 29.87 29.88
VIS10 10 10 10 10 10 10 10 8 3 9 10 10
CIG90 220 90 200 23 100 85 90 80 14 15 13 17
CoverOVCOVCOVCOVCOVCOVCOVCOVCOVCOVCOVCOVCOVC
FltCatVFRVFRVFRVFRMVFRVFRVFRVFRVFRMVFRMVFRMVFRMVFR
WX-------------RA-RARARA BR-RA----
WDir120130140130140130130120120120120140140
WSpd6 13 12 9 13 9 10 15 14 12 12 11 9
WGst-- -- 19 -- 22 -- 19 20 19 -- -- -- 16
Raw hourly METARs
KMEM 131754Z 12006KT 10SM SCT065 OVC090 13/10 A2994 RMK AO2 SLP136 T01330100 10133 20111 58017
KMEM 131854Z 13013KT 10SM FEW070 SCT090 OVC220 15/11 A2991 RMK AO2 SLP127 T01500106
KMEM 131954Z 14012G19KT 10SM FEW070 BKN090 OVC220 15/11 A2990 RMK AO2 SLP124 T01500106
KMEM 132054Z 13009KT 10SM FEW060 SCT095 OVC200 16/11 A2990 RMK AO2 SLP124 T01560106 55012
KMEM 132205Z 14013G22KT 10SM BKN023 OVC060 16/11 A2991 RMK AO2 T01560111
KMEM 132305Z 13009KT 10SM SCT023 SCT050 OVC100 14/12 A2990 RMK AO2 RAE03 P0000 T01390117
KMEM 132354Z 13010G19KT 10SM -RA FEW070 OVC085 13/11 A2990 RMK AO2 RAE03B18 SLP124 P0000 60001 T01330111 10161 20133 55000
KMEM 140054Z 12015G20KT 10SM -RA FEW035 OVC090 12/11 A2987 RMK AO2 SLP115 P0001 T01220111
KMEM 140154Z 12014G19KT 8SM RA FEW020 OVC080 12/11 A2988 RMK AO2 SLP117 P0002 T01170111
KMEM 140304Z 12012KT 3SM RA BR FEW010 BKN014 OVC026 12/11 A2987 RMK AO2 P0003 T01170111
KMEM 140354Z 12012KT 9SM -RA FEW008 OVC015 11/11 A2987 RMK AO2 SLP112 P0020 T01110106
KMEM 140454Z 14011KT 10SM FEW008 OVC013 12/11 A2987 RMK AO2 RAE52 SLP115 P0007 T01170106
KMEM 140554Z 14009G16KT 10SM OVC017 12/11 A2988 RMK AO2 RAB0455E32 SLP116 P0001 60048 T01170106 10133 20111 401610100 53001



Page loaded:  06:49 UTC  |   10:49 PM Pacific  |   11:49 PM Mountain  |   12:49 AM Central  |   01:49 AM Eastern

 

ADVISORIES

FORECASTS

FORECASTS

OBSERVATIONS

USER TOOLS

ABOUT US